createdAt,value
2019-01-17T00:02:01.424Z,5.60
2019-01-17T00:04:49.678Z,5.56
2019-01-17T00:07:29.835Z,5.56
2019-01-17T00:13:24.206Z,5.50
2019-01-17T00:16:12.419Z,5.40
2019-01-17T00:19:00.727Z,5.27
2019-01-17T00:21:49.176Z,5.36
2019-01-17T00:24:37.681Z,4.87
2019-01-17T00:27:26.060Z,5.34
2019-01-17T00:30:14.287Z,5.33
2019-01-17T00:32:56.967Z,5.31
2019-01-17T00:35:36.427Z,5.29
2019-01-17T00:38:24.672Z,5.29
2019-01-17T00:41:12.860Z,5.29
2019-01-17T00:44:01.040Z,5.29
2019-01-17T00:46:49.318Z,5.23
2019-01-17T00:49:37.689Z,5.25
2019-01-17T00:52:45.017Z,5.23
2019-01-17T00:55:33.206Z,5.21
2019-01-17T00:58:21.438Z,5.18
2019-01-17T01:01:03.376Z,5.09
2019-01-17T01:03:51.734Z,5.07
2019-01-17T01:06:40.177Z,5.03
2019-01-17T01:09:28.424Z,4.73
2019-01-17T01:12:08.512Z,4.69
2019-01-17T01:14:44.484Z,4.89
2019-01-17T01:17:32.729Z,4.86
2019-01-17T01:20:20.938Z,4.80
2019-01-17T01:23:22.438Z,4.76
2019-01-17T01:26:29.658Z,4.71
2019-01-17T01:29:17.841Z,4.68
2019-01-17T01:32:06.290Z,4.65
2019-01-17T01:34:54.498Z,4.61
2019-01-17T01:37:42.788Z,4.54
2019-01-17T01:43:56.327Z,4.37
2019-01-17T01:46:44.940Z,4.32
2019-01-17T01:49:33.251Z,4.29
2019-01-17T01:52:21.546Z,4.32
2019-01-17T01:54:51.110Z,4.32
2019-01-17T01:57:20.400Z,4.37
2019-01-17T01:59:50.034Z,4.38
2019-01-17T02:02:19.308Z,4.40
2019-01-17T02:04:48.756Z,4.40
2019-01-17T02:07:18.073Z,4.38
2019-01-17T02:10:06.256Z,4.38
2019-01-17T02:12:35.890Z,4.35
2019-01-17T02:15:44.509Z,4.33
2019-01-17T02:18:13.985Z,4.29
2019-01-17T02:20:43.286Z,4.20
2019-01-17T02:23:12.926Z,4.12
2019-01-17T02:25:42.224Z,4.08
2019-01-17T02:28:11.567Z,4.02
2019-01-17T02:30:40.859Z,4.01
2019-01-17T02:33:10.212Z,3.97
2019-01-17T02:35:39.507Z,3.96
2019-01-17T02:38:08.893Z,3.98
2019-01-17T02:40:38.243Z,3.93
2019-01-17T02:43:07.526Z,3.64
2019-01-17T02:45:36.841Z,3.95
2019-01-17T02:48:06.117Z,3.83
2019-01-17T02:50:35.398Z,3.83
2019-01-17T02:53:04.801Z,3.85
2019-01-17T02:55:34.329Z,3.86
2019-01-17T02:58:03.622Z,3.35
2019-01-17T03:00:33.175Z,3.88
2019-01-17T03:03:02.451Z,3.86
2019-01-17T03:05:31.890Z,3.84
2019-01-17T03:08:01.171Z,3.89
2019-01-17T03:10:30.701Z,3.93
2019-01-17T03:12:59.992Z,3.89
2019-01-17T03:15:29.486Z,3.68
2019-01-17T03:17:58.785Z,2.93
2019-01-17T03:20:28.353Z,3.40
2019-01-17T03:22:57.624Z,3.28
2019-01-17T03:25:27.365Z,3.22
2019-01-17T03:27:56.732Z,3.17
2019-01-17T03:30:26.243Z,3.07
2019-01-17T03:35:50.300Z,2.87
2019-01-17T03:38:19.568Z,2.76
2019-01-17T03:40:49.257Z,2.77
2019-01-17T03:43:18.548Z,2.65
2019-01-17T03:45:47.879Z,2.56
2019-01-17T03:48:36.245Z,2.51
2019-01-17T03:51:16.770Z,2.45
2019-01-17T03:53:57.889Z,2.42
2019-01-17T03:56:27.345Z,2.36
2019-01-17T03:58:56.616Z,2.13
2019-01-17T04:01:26.665Z,1.93
2019-01-17T04:06:44.339Z,1.86
2019-01-17T04:09:13.765Z,1.88
2019-01-17T04:11:43.033Z,1.85
2019-01-17T04:14:12.456Z,1.78
2019-01-17T04:16:41.767Z,1.35
2019-01-17T04:19:11.378Z,1.49
2019-01-17T04:21:40.646Z,1.14
2019-01-17T04:24:10.342Z,1.26
2019-01-17T04:26:58.970Z,1.05
2019-01-17T04:29:47.241Z,1.05
2019-01-17T04:32:16.542Z,0.95
2019-01-17T04:34:46.278Z,0.74
2019-01-17T04:37:15.625Z,0.58
2019-01-17T04:42:52.411Z,0.37
2019-01-17T04:45:22.067Z,0.23
2019-01-17T04:47:51.363Z,0.09
2019-01-17T04:50:20.925Z,0.02
2019-01-17T04:52:50.208Z,0.00
2019-01-17T04:55:19.631Z,-0.02
2019-01-17T05:00:37.227Z,-0.21
2019-01-17T05:03:06.565Z,-0.15
2019-01-17T05:05:35.860Z,-0.21
2019-01-17T05:08:05.344Z,-0.28
2019-01-17T05:10:55.109Z,-0.34
2019-01-17T05:13:24.503Z,-0.42
2019-01-17T05:15:54.034Z,-0.49
2019-01-17T05:18:23.355Z,-0.52
2019-01-17T05:20:52.821Z,-0.61
2019-01-17T05:23:22.130Z,-0.68
2019-01-17T05:25:51.450Z,-0.75
2019-01-17T05:28:20.736Z,-0.79
2019-01-17T05:30:50.075Z,-0.85
2019-01-17T05:33:19.366Z,-0.92
2019-01-17T05:35:48.782Z,-0.96
2019-01-17T05:38:18.234Z,-0.99
2019-01-17T05:40:47.707Z,-0.99
2019-01-17T05:43:17.321Z,-0.96
2019-01-17T05:45:46.714Z,-1.02
2019-01-17T05:48:16.842Z,-1.08
2019-01-17T05:50:46.223Z,-1.16
2019-01-17T05:53:15.717Z,-1.15
2019-01-17T05:55:45.214Z,-1.18
2019-01-17T05:58:14.518Z,-1.21
2019-01-17T06:00:44.186Z,-1.24
2019-01-17T06:03:13.466Z,-1.30
2019-01-17T06:06:22.248Z,-1.32
2019-01-17T06:08:51.539Z,-1.39
2019-01-17T06:11:21.112Z,-1.41
2019-01-17T06:13:50.407Z,-1.47
2019-01-17T06:16:20.070Z,-1.49
2019-01-17T06:18:49.399Z,-1.49
2019-01-17T06:23:54.215Z,-1.58
2019-01-17T06:26:23.596Z,-1.62
2019-01-17T06:28:53.028Z,-1.63
2019-01-17T06:31:22.329Z,-1.72
2019-01-17T06:33:52.607Z,-1.73
2019-01-17T06:36:21.889Z,-1.79
2019-01-17T06:38:51.363Z,-1.81
2019-01-17T06:41:20.707Z,-1.85
2019-01-17T06:43:51.151Z,-1.88
2019-01-17T06:46:21.110Z,-1.89
2019-01-17T06:48:50.624Z,-1.91
2019-01-17T06:51:59.233Z,-1.91
2019-01-17T06:54:28.664Z,-1.97
2019-01-17T06:56:57.975Z,-2.01
2019-01-17T06:59:27.699Z,-2.38
2019-01-17T07:01:57.016Z,-2.07
2019-01-17T07:04:26.326Z,-2.09
2019-01-17T07:06:55.694Z,-2.29
2019-01-17T07:09:25.099Z,-2.15
2019-01-17T07:11:54.407Z,-2.17
2019-01-17T07:14:24.021Z,-2.20
2019-01-17T07:17:12.255Z,-2.24
2019-01-17T07:19:41.594Z,-2.26
2019-01-17T07:22:30.198Z,-2.30
2019-01-17T07:24:59.673Z,-2.33
2019-01-17T07:27:28.979Z,-2.36
2019-01-17T07:29:58.794Z,-2.36
2019-01-17T07:32:28.167Z,-3.02
2019-01-17T07:34:57.928Z,-2.40
2019-01-17T07:37:27.292Z,-2.42
2019-01-17T07:39:57.419Z,-2.44
2019-01-17T07:42:26.758Z,-2.44
2019-01-17T07:44:56.446Z,-2.47
2019-01-17T07:47:25.899Z,-2.49
2019-01-17T07:49:55.709Z,-2.52
2019-01-17T07:52:25.114Z,-2.70
2019-01-17T07:54:54.491Z,-2.52
2019-01-17T07:57:23.787Z,-2.53
2019-01-17T07:59:53.243Z,-2.52
2019-01-17T08:02:22.560Z,-2.55
2019-01-17T08:04:52.043Z,-2.52
2019-01-17T08:07:40.538Z,-2.51
2019-01-17T08:10:11.918Z,-2.49
2019-01-17T08:12:41.215Z,-2.50
2019-01-17T08:15:50.123Z,-2.51
2019-01-17T08:18:19.445Z,-2.52
2019-01-17T08:20:48.832Z,-2.49
2019-01-17T08:23:18.286Z,-2.52
2019-01-17T08:25:53.968Z,-2.48
2019-01-17T08:28:18.688Z,-2.48
2019-01-17T08:30:48.043Z,-2.46
2019-01-17T08:35:52.689Z,-2.39
2019-01-17T08:38:22.068Z,-2.39
2019-01-17T08:40:51.544Z,-2.37
2019-01-17T08:43:20.923Z,-2.49
2019-01-17T08:46:09.234Z,-2.34
2019-01-17T08:48:50.459Z,-2.30
2019-01-17T08:51:19.771Z,-2.28
2019-01-17T08:53:49.181Z,-2.25
2019-01-17T08:56:37.692Z,-2.20
2019-01-17T08:59:07.089Z,-2.20
2019-01-17T09:01:36.726Z,-2.20
2019-01-17T09:04:06.338Z,-2.19
2019-01-17T09:09:44.625Z,-2.14
2019-01-17T09:12:13.970Z,-2.14
2019-01-17T09:14:54.609Z,-2.14
2019-01-17T09:17:24.229Z,-2.14
2019-01-17T09:19:53.504Z,-2.45
2019-01-17T09:22:23.200Z,-2.12
2019-01-17T09:24:52.507Z,-2.12
2019-01-17T09:27:22.447Z,-2.12
2019-01-17T09:30:14.787Z,-2.11
2019-01-17T09:32:46.774Z,-2.11
2019-01-17T09:38:36.201Z,-2.12
2019-01-17T09:41:05.499Z,-2.79
2019-01-17T09:43:35.052Z,-2.14
2019-01-17T09:46:04.343Z,-2.15
2019-01-17T09:49:13.188Z,-2.09
2019-01-17T09:51:42.747Z,-2.11
2019-01-17T09:54:19.824Z,-2.14
2019-01-17T09:56:49.249Z,-2.07
2019-01-17T09:59:18.629Z,-2.08
2019-01-17T10:02:27.510Z,-2.13
2019-01-17T10:04:57.084Z,-2.08
2019-01-17T10:07:45.427Z,-2.02
2019-01-17T10:10:16.534Z,-2.02
2019-01-17T10:12:48.042Z,-1.99
2019-01-17T10:15:21.333Z,-1.94
2019-01-17T10:18:28.762Z,-1.99
2019-01-17T10:21:36.067Z,-2.01
2019-01-17T10:24:43.653Z,-1.97
2019-01-17T10:31:19.333Z,-1.88
2019-01-17T10:34:30.943Z,-1.81
2019-01-17T10:37:39.697Z,-1.76
2019-01-17T10:40:47.078Z,-1.71
2019-01-17T10:43:54.525Z,-1.70
2019-01-17T10:46:56.195Z,-1.65
2019-01-17T10:50:03.814Z,-1.62
2019-01-17T10:53:12.974Z,-1.65
2019-01-17T10:56:20.283Z,-1.66
2019-01-17T10:59:27.680Z,-1.63
2019-01-17T11:02:21.211Z,-1.56
2019-01-17T11:08:41.728Z,-1.55
2019-01-17T11:11:37.215Z,-1.53
2019-01-17T11:14:46.720Z,-1.55
2019-01-17T11:17:54.220Z,-1.54
2019-01-17T11:20:46.465Z,-1.55
2019-01-17T11:23:54.291Z,-1.56
2019-01-17T11:27:01.601Z,-1.51
2019-01-17T11:29:56.273Z,-1.49
2019-01-17T11:33:03.619Z,-1.48
2019-01-17T11:35:57.049Z,-1.55
2019-01-17T11:42:16.572Z,-1.55
2019-01-17T11:45:23.918Z,-1.61
2019-01-17T11:48:18.955Z,-1.66
2019-01-17T11:51:26.450Z,-1.66
2019-01-17T11:54:33.744Z,-1.71
2019-01-17T11:57:30.391Z,-1.76
2019-01-17T12:00:24.887Z,-1.76
2019-01-17T12:03:32.275Z,-1.76
2019-01-17T12:06:01.595Z,-1.76
2019-01-17T12:08:30.977Z,-1.70
2019-01-17T12:11:00.270Z,-1.74
2019-01-17T12:13:29.598Z,-1.63
2019-01-17T12:15:58.906Z,-1.56
2019-01-17T12:18:28.213Z,-1.51
2019-01-17T12:20:57.508Z,-1.47
2019-01-17T12:23:26.905Z,-1.54
2019-01-17T12:26:15.267Z,-1.38
2019-01-17T12:28:44.554Z,-1.30
2019-01-17T12:31:13.865Z,-1.29
2019-01-17T12:33:43.313Z,-1.31
2019-01-17T12:36:12.657Z,-1.55
2019-01-17T12:38:41.971Z,-1.26
2019-01-17T12:41:11.296Z,-1.22
2019-01-17T12:43:40.576Z,-1.31
2019-01-17T12:46:09.942Z,-1.33
2019-01-17T12:48:39.261Z,-1.32
2019-01-17T12:51:08.539Z,-1.30
2019-01-17T12:53:38.277Z,-1.37
2019-01-17T12:56:07.623Z,-1.39
2019-01-17T12:58:37.145Z,-1.41
2019-01-17T13:03:54.832Z,-1.43
2019-01-17T13:06:24.431Z,-1.48
2019-01-17T13:08:53.729Z,-1.79
2019-01-17T13:11:23.241Z,-1.52
2019-01-17T13:13:52.540Z,-1.85
2019-01-17T13:16:22.252Z,-1.58
2019-01-17T13:18:51.570Z,-1.72
2019-01-17T13:21:21.197Z,-1.56
2019-01-17T13:24:09.691Z,-1.60
2019-01-17T13:26:38.987Z,-1.62
2019-01-17T13:29:08.357Z,-1.63
2019-01-17T13:31:37.676Z,-2.18
2019-01-17T13:34:07.267Z,-1.67
2019-01-17T13:36:40.263Z,-2.02
2019-01-17T13:39:28.848Z,-1.75
2019-01-17T13:41:59.004Z,-1.74
2019-01-17T13:44:29.266Z,-1.72
2019-01-17T13:46:58.545Z,-1.74
2019-01-17T13:49:28.219Z,-1.72
2019-01-17T13:51:57.519Z,-1.70
2019-01-17T13:54:27.109Z,-1.78
2019-01-17T13:56:56.451Z,-1.82
2019-01-17T13:59:25.964Z,-1.81
2019-01-17T14:01:55.291Z,-1.87
2019-01-17T14:04:25.022Z,-1.88
2019-01-17T14:06:54.385Z,-1.89
2019-01-17T14:09:24.125Z,-1.92
2019-01-17T14:12:12.330Z,-1.97
2019-01-17T14:14:42.561Z,-2.02
2019-01-17T14:17:12.067Z,-2.04
2019-01-17T14:20:00.378Z,-2.06
2019-01-17T14:22:29.660Z,-2.09
2019-01-17T14:24:59.193Z,-2.10
2019-01-17T14:27:28.517Z,-2.07
2019-01-17T14:30:18.313Z,-2.12
2019-01-17T14:32:48.184Z,-2.10
2019-01-17T14:38:19.168Z,-2.17
2019-01-17T14:43:44.009Z,-2.19
2019-01-17T14:46:13.612Z,-2.22
2019-01-17T14:48:42.885Z,-2.27
2019-01-17T14:51:12.589Z,-2.28
2019-01-17T14:53:41.935Z,-2.29
2019-01-17T14:56:11.567Z,-2.33
2019-01-17T14:58:40.987Z,-3.02
2019-01-17T15:03:47.460Z,-2.43
2019-01-17T15:06:16.835Z,-2.81
2019-01-17T15:08:46.263Z,-2.47
2019-01-17T15:11:15.604Z,-2.49
2019-01-17T15:13:44.989Z,-2.54
2019-01-17T15:16:14.274Z,-2.54
2019-01-17T15:18:43.598Z,-2.56
2019-01-17T15:21:12.937Z,-2.62
2019-01-17T15:23:42.510Z,-2.67
2019-01-17T15:26:11.819Z,-2.69
2019-01-17T15:28:41.325Z,-2.73
2019-01-17T15:31:10.791Z,-2.76
2019-01-17T15:33:40.162Z,-2.83
2019-01-17T15:36:28.727Z,-2.85
2019-01-17T15:38:58.088Z,-2.90
2019-01-17T15:41:28.618Z,-2.89
2019-01-17T15:43:59.257Z,-2.94
2019-01-17T15:49:41.576Z,-2.95
2019-01-17T15:52:10.902Z,-3.00
2019-01-17T15:54:40.305Z,-3.02
2019-01-17T15:57:09.650Z,-3.05
2019-01-17T15:59:39.372Z,-3.09
2019-01-17T16:02:08.657Z,-3.10
2019-01-17T16:04:38.077Z,-3.12
2019-01-17T16:07:07.399Z,-3.16
2019-01-17T16:09:37.435Z,-3.19
2019-01-17T16:12:06.815Z,-3.21
2019-01-17T16:14:36.252Z,-3.24
2019-01-17T16:17:24.448Z,-3.25
2019-01-17T16:19:54.646Z,-3.27
2019-01-17T16:22:24.210Z,-3.33
2019-01-17T16:24:53.490Z,-3.35
2019-01-17T16:27:22.987Z,-3.36
2019-01-17T16:29:52.363Z,-3.34
2019-01-17T16:32:21.783Z,-3.36
2019-01-17T16:34:51.133Z,-3.40
2019-01-17T16:37:20.557Z,-3.45
2019-01-17T16:42:38.107Z,-3.46
2019-01-17T16:45:26.453Z,-3.48
2019-01-17T16:47:56.069Z,-3.46
2019-01-17T16:50:26.706Z,-3.53
2019-01-17T16:52:56.336Z,-3.56
2019-01-17T16:55:25.658Z,-3.60
2019-01-17T16:57:55.223Z,-3.67
2019-01-17T17:00:44.999Z,-3.62
2019-01-17T17:06:13.595Z,-3.68
2019-01-17T17:08:43.015Z,-3.70
2019-01-17T17:11:12.328Z,-3.71
2019-01-17T17:13:41.767Z,-3.73
2019-01-17T17:16:11.083Z,-3.75
2019-01-17T17:18:40.405Z,-3.76
2019-01-17T17:21:09.698Z,-3.83
2019-01-17T17:23:58.087Z,-3.86
2019-01-17T17:26:27.390Z,-3.86
2019-01-17T17:28:56.952Z,-3.89
2019-01-17T17:31:26.259Z,-3.96
2019-01-17T17:34:14.737Z,-3.98
2019-01-17T17:39:57.719Z,-4.06
2019-01-17T17:42:27.008Z,-4.10
2019-01-17T17:44:56.446Z,-4.11
2019-01-17T17:47:25.862Z,-4.13
2019-01-17T17:53:17.821Z,-4.22
2019-01-17T17:55:47.127Z,-4.27
2019-01-17T17:58:16.504Z,-4.26
2019-01-17T18:00:52.936Z,-4.28
2019-01-17T18:03:22.284Z,-4.35
2019-01-17T18:05:51.904Z,-4.31
2019-01-17T18:08:21.322Z,-4.31
2019-01-17T18:10:50.818Z,-4.33
2019-01-17T18:13:20.137Z,-4.38
2019-01-17T18:15:49.596Z,-4.39
2019-01-17T18:18:18.994Z,-4.44
2019-01-17T18:20:48.302Z,-4.44
2019-01-17T18:23:17.706Z,-4.44
2019-01-17T18:25:47.099Z,-4.47
2019-01-17T18:28:16.522Z,-4.46
2019-01-17T18:30:46.040Z,-4.50
2019-01-17T18:33:15.390Z,-4.46
2019-01-17T18:35:44.751Z,-4.47
2019-01-17T18:38:14.086Z,-4.47
2019-01-17T18:40:43.635Z,-4.48
2019-01-17T18:43:12.935Z,-4.44
2019-01-17T18:46:01.705Z,-4.42
2019-01-17T18:48:31.010Z,-4.38
2019-01-17T18:51:00.322Z,-4.33
2019-01-17T18:53:29.676Z,-4.30
2019-01-17T18:55:59.047Z,-4.26
2019-01-17T18:58:28.418Z,-4.24
2019-01-17T19:01:16.875Z,-4.26
2019-01-17T19:03:47.474Z,-4.27
2019-01-17T19:06:17.010Z,-4.28
2019-01-17T19:09:21.658Z,-4.30
2019-01-17T19:15:00.670Z,-4.33
2019-01-17T19:20:42.197Z,-4.33
2019-01-17T19:23:18.205Z,-4.33
2019-01-17T19:25:47.903Z,-4.35
2019-01-17T19:28:22.326Z,-4.38
2019-01-17T19:30:48.399Z,-4.41
2019-01-17T19:33:17.725Z,-4.44
2019-01-17T19:35:47.337Z,-4.46
2019-01-17T19:38:16.682Z,-4.48
2019-01-17T19:40:46.105Z,-4.50
2019-01-17T19:43:15.394Z,-4.59
2019-01-17T19:45:45.046Z,-4.59
2019-01-17T19:48:14.363Z,-4.59
2019-01-17T19:50:43.973Z,-4.60
2019-01-17T19:53:13.353Z,-4.64
2019-01-17T19:56:15.776Z,-4.70
2019-01-17T19:58:58.827Z,-4.70
2019-01-17T20:01:28.181Z,-4.91
2019-01-17T20:03:57.873Z,-4.80
2019-01-17T20:06:27.230Z,-4.87
2019-01-17T20:09:16.551Z,-4.89
2019-01-17T20:11:46.170Z,-4.94
2019-01-17T20:14:15.539Z,-5.33
2019-01-17T20:16:45.280Z,-5.05
2019-01-17T20:19:33.847Z,-5.09
2019-01-17T20:22:03.182Z,-5.09
2019-01-17T20:24:32.815Z,-5.11
2019-01-17T20:27:02.145Z,-5.13
2019-01-17T20:29:31.723Z,-5.15
2019-01-17T20:32:01.025Z,-5.17
2019-01-17T20:34:30.606Z,-5.22
2019-01-17T20:36:59.906Z,-5.24
2019-01-17T20:39:29.341Z,-5.26
2019-01-17T20:41:58.658Z,-5.29
2019-01-17T20:44:28.215Z,-5.32
2019-01-17T20:46:57.601Z,-5.39
2019-01-17T20:49:27.125Z,-5.46
2019-01-17T20:51:56.455Z,-5.54
2019-01-17T20:54:26.234Z,-5.62
2019-01-17T20:57:14.439Z,-5.68
2019-01-17T20:59:43.833Z,-5.75
2019-01-17T21:02:16.897Z,-5.80
2019-01-17T21:04:46.245Z,-5.86
2019-01-17T21:07:15.845Z,-5.91
2019-01-17T21:09:45.159Z,-5.97
2019-01-17T21:12:14.522Z,-6.02
2019-01-17T21:17:33.754Z,-6.12
2019-01-17T21:20:03.128Z,-6.17
2019-01-17T21:22:32.471Z,-6.23
2019-01-17T21:25:01.988Z,-6.25
2019-01-17T21:27:31.283Z,-6.30
2019-01-17T21:30:00.748Z,-6.34
2019-01-17T21:32:30.057Z,-6.39
2019-01-17T21:34:59.462Z,-6.42
2019-01-17T21:37:28.805Z,-6.82
2019-01-17T21:39:58.262Z,-6.49
2019-01-17T21:42:27.581Z,-6.81
2019-01-17T21:47:32.921Z,-6.52
2019-01-17T21:50:02.318Z,-6.57
2019-01-17T21:52:50.612Z,-6.59
2019-01-17T21:55:20.391Z,-6.60
2019-01-17T21:57:49.711Z,-6.63
2019-01-17T22:00:21.442Z,-6.71
2019-01-17T22:02:50.883Z,-6.75
2019-01-17T22:05:20.188Z,-6.77
2019-01-17T22:07:49.515Z,-6.78
2019-01-17T22:10:19.162Z,-6.82
2019-01-17T22:12:48.491Z,-6.85
2019-01-17T22:15:20.105Z,-6.85
2019-01-17T22:17:49.393Z,-6.83
2019-01-17T22:20:19.116Z,-6.81
2019-01-17T22:26:02.785Z,-6.84
2019-01-17T22:28:32.068Z,-6.87
2019-01-17T22:31:01.367Z,-6.89
2019-01-17T22:33:30.655Z,-6.95
2019-01-17T22:36:00.026Z,-6.92
2019-01-17T22:38:48.380Z,-6.95
2019-01-17T22:41:17.678Z,-6.95
2019-01-17T22:43:46.964Z,-7.00
2019-01-17T22:46:16.274Z,-7.04
2019-01-17T22:48:45.566Z,-7.03
2019-01-17T22:51:15.039Z,-7.01
2019-01-17T22:53:44.358Z,-7.01
2019-01-17T22:56:13.849Z,-7.02
2019-01-17T22:58:43.140Z,-7.20
2019-01-17T23:01:35.376Z,-7.05
2019-01-17T23:04:06.471Z,-7.05
2019-01-17T23:06:35.910Z,-7.08
2019-01-17T23:09:24.328Z,-7.10
2019-01-17T23:11:53.643Z,-7.13
2019-01-17T23:14:23.279Z,-7.16
2019-01-17T23:16:52.564Z,-7.19
2019-01-17T23:19:22.239Z,-7.20
2019-01-17T23:21:51.534Z,-7.22
2019-01-17T23:24:21.203Z,-7.19
2019-01-17T23:26:50.508Z,-7.22
2019-01-17T23:29:19.917Z,-7.25
2019-01-17T23:31:49.215Z,-7.27
2019-01-17T23:34:18.827Z,-7.28
2019-01-17T23:36:48.983Z,-7.28
2019-01-17T23:39:19.369Z,-7.30
2019-01-17T23:41:48.679Z,-7.30
2019-01-17T23:44:18.286Z,-7.31
2019-01-17T23:47:06.629Z,-7.33
2019-01-17T23:49:35.959Z,-7.35
2019-01-17T23:52:06.011Z,-7.39
2019-01-17T23:54:35.317Z,-7.35
2019-01-17T23:57:04.990Z,-7.35
2019-01-17T23:59:34.328Z,-7.33
